Time;durP1;ratioP1;P1;durP2;ratioP2;P2;SDS_P1;SDS_P2;PMS_P1;PMS_P2;Temp;Humidity;BMP_temperature;BMP_pressure;BME280_temperature;BME280_humidity;BME280_pressure;Samples;Min_cycle;Max_cycle;Signal;HPM_P1;HPM_P2
2022/02/02 00:05:49;;;;;;;3.55;2.00;;;;;;;;;;21164577;28;20055;-57
2022/02/02 00:16:05;;;;;;;2.60;1.52;;;;;;;;;;21164240;28;20392;-59
2022/02/02 00:26:15;;;;;;;5.95;1.90;;;;;;;;;;21164241;28;20506;-59
2022/02/02 00:36:23;;;;;;;4.47;2.35;;;;;;;;;;21161845;28;20051;-58
2022/02/02 00:46:27;;;;;;;2.70;1.55;;;;;;;;;;21163289;28;20445;-56
2022/02/02 00:56:29;;;;;;;4.13;2.13;;;;;;;;;;21162485;28;20048;-59
2022/02/02 01:06:35;;;;;;;4.40;2.22;;;;;;;;;;21161977;28;20080;-59
2022/02/02 01:36:58;;;;;;;2.97;1.50;;;;;;;;;;21160111;28;20128;-58
2022/02/02 01:47:01;;;;;;;2.65;1.50;;;;;;;;;;21164869;28;20055;-59
2022/02/02 01:57:16;;;;;;;3.17;1.60;;;;;;;;;;21176574;28;20044;-56
2022/02/02 02:07:21;;;;;;;2.60;1.60;;;;;;;;;;21174446;28;20425;-58
2022/02/02 02:17:26;;;;;;;;;;;;;;;;;;21174539;28;20126;-58
2022/02/02 02:27:28;;;;;;;5.65;1.90;;;;;;;;;;21171936;28;19923;-59
2022/02/02 04:11:58;;;;;;;4.40;2.20;;;;;;;;;;20987743;28;20049;-56
2022/02/02 05:05:39;;;;;;;4.65;1.90;;;;;;;;;;20985289;28;20044;-57
2022/02/02 05:58:07;;;;;;;4.43;2.30;;;;;;;;;;21175509;28;20047;-56
2022/02/02 06:08:29;;;;;;;2.78;1.83;;;;;;;;;;21173627;28;20063;-57
2022/02/02 06:18:34;;;;;;;5.45;2.10;;;;;;;;;;21173520;28;20055;-58
2022/02/02 06:28:40;;;;;;;4.37;2.13;;;;;;;;;;21172655;28;20083;-58
2022/02/02 06:38:49;;;;;;;5.43;2.20;;;;;;;;;;21172372;28;20048;-58
2022/02/02 06:49:11;;;;;;;3.63;2.00;;;;;;;;;;21171907;28;20048;-56
2022/02/02 07:31:01;;;;;;;8.93;3.30;;;;;;;;;;21168065;28;20052;-56
2022/02/02 07:41:25;;;;;;;7.80;3.35;;;;;;;;;;21167493;28;20102;-56
2022/02/02 07:51:50;;;;;;;8.88;3.78;;;;;;;;;;21164698;28;20043;-58
2022/02/02 08:02:13;;;;;;;10.25;3.22;;;;;;;;;;21164959;28;20048;-58
2022/02/02 08:12:59;;;;;;;8.10;3.53;;;;;;;;;;21164539;28;20047;-57
2022/02/02 08:23:10;;;;;;;9.90;4.05;;;;;;;;;;21164072;28;20039;-58
2022/02/02 08:33:37;;;;;;;6.72;3.65;;;;;;;;;;21164596;28;20051;-57
2022/02/02 08:44:04;;;;;;;9.57;5.18;;;;;;;;;;21162920;28;20048;-56
2022/02/02 08:54:48;;;;;;;6.68;3.80;;;;;;;;;;21163803;28;20055;-59
2022/02/02 09:05:41;;;;;;;11.15;4.97;;;;;;;;;;21175213;28;20480;-61
2022/02/02 09:36:32;;;;;;;12.13;4.28;;;;;;;;;;21173482;28;20035;-62
2022/02/02 09:47:01;;;;;;;10.60;4.67;;;;;;;;;;21175186;28;20399;-57
2022/02/02 10:18:12;;;;;;;11.15;5.60;;;;;;;;;;21170737;28;20040;-54
2022/02/02 10:28:15;;;;;;;14.23;5.63;;;;;;;;;;21170728;27;20450;-55
2022/02/02 10:38:42;;;;;;;11.23;4.97;;;;;;;;;;21171275;28;20054;-64
2022/02/02 10:49:04;;;;;;;13.30;4.60;;;;;;;;;;21170796;28;20044;-55
2022/02/02 10:59:22;;;;;;;15.55;4.75;;;;;;;;;;21168631;28;20117;-55
2022/02/02 11:09:30;;;;;;;13.20;4.67;;;;;;;;;;21169826;28;20540;-55
2022/02/02 11:19:35;;;;;;;10.98;5.03;;;;;;;;;;21164648;28;20055;-55
2022/02/02 11:29:41;;;;;;;13.30;6.07;;;;;;;;;;21165552;28;20462;-53
2022/02/02 11:39:58;;;;;;;8.77;4.68;;;;;;;;;;21165289;28;20059;-55
2022/02/02 11:50:06;;;;;;;13.23;5.50;;;;;;;;;;21163436;28;20043;-62
2022/02/02 12:01:03;;;;;;;10.90;5.35;;;;;;;;;;21164719;28;20052;-52
2022/02/02 12:10:41;;;;;;;11.25;6.72;;;;;;;;;;21148648;28;20456;-56
2022/02/02 12:27:46;;;;;;;12.45;7.60;;;;;;;;;;21164223;28;20039;-54
2022/02/02 13:02:21;;;;;;;9.55;6.93;;;;;;;;;;21163713;28;20126;-58
2022/02/02 13:12:27;;;;;;;8.52;5.15;;;;;;;;;;21161047;28;20048;-52
2022/02/02 13:22:32;;;;;;;58.78;10.10;;;;;;;;;;21161113;28;20043;-52
2022/02/02 13:32:47;;;;;;;8.27;4.00;;;;;;;;;;21161776;28;20503;-51
2022/02/02 13:53:36;;;;;;;8.30;4.47;;;;;;;;;;21176232;28;20101;-54
2022/02/02 14:34:41;;;;;;;8.68;4.07;;;;;;;;;;21173045;28;20044;-52
2022/02/02 14:44:45;;;;;;;6.50;3.50;;;;;;;;;;21171223;28;20051;-55
2022/02/02 16:07:29;;;;;;;5.20;2.30;;;;;;;;;;21140334;28;20513;-52
2022/02/02 16:17:49;;;;;;;5.03;1.40;;;;;;;;;;21163846;28;20067;-51
2022/02/02 16:38:14;;;;;;;2.88;1.48;;;;;;;;;;21163882;28;20511;-52
2022/02/02 16:48:17;;;;;;;4.82;1.75;;;;;;;;;;21163562;28;20109;-57
2022/02/02 17:39:49;;;;;;;8.32;3.28;;;;;;;;;;21176812;28;20047;-52
2022/02/02 18:20:53;;;;;;;12.45;5.07;;;;;;;;;;20911349;28;20079;-55
2022/02/02 20:13:39;;;;;;;16.23;6.22;;;;;;;;;;21165823;28;20048;-56
2022/02/02 20:23:45;;;;;;;10.33;4.67;;;;;;;;;;21164309;28;20046;-53
2022/02/02 20:33:47;;;;;;;10.73;6.00;;;;;;;;;;21163611;28;20052;-57
2022/02/02 21:14:48;;;;;;;7.70;3.30;;;;;;;;;;21162444;28;20407;-57
2022/02/02 21:34:52;;;;;;;9.52;4.18;;;;;;;;;;21161901;28;20082;-55
2022/02/02 21:44:54;;;;;;;10.25;4.00;;;;;;;;;;21161255;28;20044;-55
2022/02/02 21:54:57;;;;;;;6.25;3.17;;;;;;;;;;21161351;28;20105;-55
2022/02/02 22:04:59;;;;;;;11.32;4.32;;;;;;;;;;21166803;28;20055;-56
2022/02/02 22:15:01;;;;;;;5.93;2.72;;;;;;;;;;21177149;28;20196;-54
2022/02/02 22:25:03;;;;;;;8.38;3.45;;;;;;;;;;21174230;28;20052;-55
2022/02/02 22:35:05;;;;;;;13.85;5.10;;;;;;;;;;21173787;28;20444;-57
2022/02/02 22:45:09;;;;;;;8.38;4.00;;;;;;;;;;21171916;28;20055;-55
2022/02/02 22:55:13;;;;;;;8.40;3.83;;;;;;;;;;21173464;28;20403;-55
2022/02/02 23:05:15;;;;;;;7.65;3.90;;;;;;;;;;21171127;28;20245;-54
2022/02/02 23:15:26;;;;;;;8.98;3.95;;;;;;;;;;21169927;28;20044;-56
2022/02/02 23:25:30;;;;;;;10.23;5.38;;;;;;;;;;21169788;28;20061;-55
2022/02/02 23:35:32;;;;;;;6.82;3.38;;;;;;;;;;21169776;28;20051;-55
2022/02/02 23:45:34;;;;;;;5.50;2.92;;;;;;;;;;21168098;28;20048;-55
2022/02/02 23:55:39;;;;;;;6.47;2.63;;;;;;;;;;21167382;28;20048;-54
